sensor_id;sensor_type;location;lat;lon;timestamp;P1;durP1;ratioP1;P2;durP2;ratioP2
55589;SDS011;41452;42.780;23.116;2022-10-15T00:01:35;12.50;;;3.90;;
55589;SDS011;41452;42.780;23.116;2022-10-15T00:04:01;7.68;;;2.88;;
55589;SDS011;41452;42.780;23.116;2022-10-15T00:06:26;10.52;;;3.15;;
55589;SDS011;41452;42.780;23.116;2022-10-15T00:08:52;4.05;;;2.63;;
55589;SDS011;41452;42.780;23.116;2022-10-15T00:11:19;8.90;;;3.17;;
55589;SDS011;41452;42.780;23.116;2022-10-15T00:13:46;7.40;;;3.45;;
55589;SDS011;41452;42.780;23.116;2022-10-15T00:16:14;6.47;;;3.38;;
55589;SDS011;41452;42.780;23.116;2022-10-15T00:18:41;5.57;;;2.85;;
55589;SDS011;41452;42.780;23.116;2022-10-15T00:21:07;7.68;;;3.45;;
55589;SDS011;41452;42.780;23.116;2022-10-15T00:23:34;5.68;;;3.08;;
55589;SDS011;41452;42.780;23.116;2022-10-15T00:26:01;8.20;;;3.47;;
55589;SDS011;41452;42.780;23.116;2022-10-15T00:28:28;5.85;;;3.35;;
55589;SDS011;41452;42.780;23.116;2022-10-15T00:30:58;8.15;;;3.80;;
55589;SDS011;41452;42.780;23.116;2022-10-15T00:33:24;7.72;;;3.15;;
55589;SDS011;41452;42.780;23.116;2022-10-15T00:36:00;8.90;;;3.53;;
55589;SDS011;41452;42.780;23.116;2022-10-15T00:38:30;4.85;;;2.83;;
55589;SDS011;41452;42.780;23.116;2022-10-15T00:40:56;7.82;;;3.40;;
55589;SDS011;41452;42.780;23.116;2022-10-15T00:43:38;6.00;;;3.38;;
55589;SDS011;41452;42.780;23.116;2022-10-15T00:46:04;9.32;;;3.15;;
55589;SDS011;41452;42.780;23.116;2022-10-15T00:48:30;7.00;;;3.22;;
55589;SDS011;41452;42.780;23.116;2022-10-15T00:50:58;5.07;;;3.42;;
55589;SDS011;41452;42.780;23.116;2022-10-15T00:53:28;9.07;;;3.70;;
55589;SDS011;41452;42.780;23.116;2022-10-15T00:55:53;5.50;;;3.08;;
55589;SDS011;41452;42.780;23.116;2022-10-15T00:58:19;6.78;;;3.72;;
55589;SDS011;41452;42.780;23.116;2022-10-15T01:00:52;6.55;;;3.63;;
55589;SDS011;41452;42.780;23.116;2022-10-15T01:03:20;7.22;;;3.10;;
55589;SDS011;41452;42.780;23.116;2022-10-15T01:05:46;13.00;;;3.47;;
55589;SDS011;41452;42.780;23.116;2022-10-15T01:08:15;9.02;;;3.28;;
55589;SDS011;41452;42.780;23.116;2022-10-15T01:10:47;8.15;;;3.47;;
55589;SDS011;41452;42.780;23.116;2022-10-15T01:13:23;7.13;;;3.60;;
55589;SDS011;41452;42.780;23.116;2022-10-15T01:16:15;8.25;;;3.42;;
55589;SDS011;41452;42.780;23.116;2022-10-15T01:18:48;7.10;;;3.38;;
55589;SDS011;41452;42.780;23.116;2022-10-15T01:21:24;7.75;;;3.83;;
55589;SDS011;41452;42.780;23.116;2022-10-15T01:32:27;6.35;;;3.42;;
55589;SDS011;41452;42.780;23.116;2022-10-15T01:40:04;6.97;;;2.83;;
55589;SDS011;41452;42.780;23.116;2022-10-15T01:42:39;5.60;;;3.22;;
55589;SDS011;41452;42.780;23.116;2022-10-15T01:45:18;9.00;;;3.63;;
55589;SDS011;41452;42.780;23.116;2022-10-15T01:47:53;5.13;;;2.55;;
55589;SDS011;41452;42.780;23.116;2022-10-15T01:50:23;5.40;;;3.03;;
55589;SDS011;41452;42.780;23.116;2022-10-15T01:52:51;6.75;;;3.70;;
55589;SDS011;41452;42.780;23.116;2022-10-15T01:55:20;6.78;;;3.67;;
55589;SDS011;41452;42.780;23.116;2022-10-15T01:57:48;11.40;;;3.65;;
55589;SDS011;41452;42.780;23.116;2022-10-15T02:00:14;8.23;;;4.18;;
55589;SDS011;41452;42.780;23.116;2022-10-15T02:02:41;9.05;;;3.42;;
55589;SDS011;41452;42.780;23.116;2022-10-15T02:05:08;8.77;;;3.45;;
55589;SDS011;41452;42.780;23.116;2022-10-15T02:10:23;7.10;;;3.28;;
55589;SDS011;41452;42.780;23.116;2022-10-15T02:15:43;7.75;;;3.45;;
55589;SDS011;41452;42.780;23.116;2022-10-15T02:18:15;7.45;;;3.85;;
55589;SDS011;41452;42.780;23.116;2022-10-15T02:20:49;8.90;;;3.63;;
55589;SDS011;41452;42.780;23.116;2022-10-15T02:23:20;8.52;;;3.63;;
55589;SDS011;41452;42.780;23.116;2022-10-15T02:25:50;6.03;;;3.47;;
55589;SDS011;41452;42.780;23.116;2022-10-15T02:28:16;7.93;;;3.63;;
55589;SDS011;41452;42.780;23.116;2022-10-15T02:30:43;9.63;;;3.90;;
55589;SDS011;41452;42.780;23.116;2022-10-15T02:33:12;7.75;;;3.60;;
55589;SDS011;41452;42.780;23.116;2022-10-15T02:35:41;14.13;;;3.40;;
55589;SDS011;41452;42.780;23.116;2022-10-15T02:38:09;7.63;;;3.65;;
55589;SDS011;41452;42.780;23.116;2022-10-15T02:40:38;8.88;;;3.58;;
55589;SDS011;41452;42.780;23.116;2022-10-15T02:43:07;7.40;;;3.67;;
55589;SDS011;41452;42.780;23.116;2022-10-15T02:45:35;11.18;;;4.40;;
55589;SDS011;41452;42.780;23.116;2022-10-15T02:48:01;8.02;;;3.70;;
55589;SDS011;41452;42.780;23.116;2022-10-15T02:50:26;6.72;;;3.67;;
55589;SDS011;41452;42.780;23.116;2022-10-15T02:52:52;5.57;;;3.30;;
55589;SDS011;41452;42.780;23.116;2022-10-15T02:55:17;7.75;;;3.10;;
55589;SDS011;41452;42.780;23.116;2022-10-15T02:57:42;7.10;;;3.20;;
55589;SDS011;41452;42.780;23.116;2022-10-15T03:00:08;6.50;;;3.40;;
55589;SDS011;41452;42.780;23.116;2022-10-15T03:02:34;5.40;;;3.45;;
55589;SDS011;41452;42.780;23.116;2022-10-15T03:04:59;6.20;;;3.50;;
55589;SDS011;41452;42.780;23.116;2022-10-15T03:07:25;8.57;;;3.67;;
55589;SDS011;41452;42.780;23.116;2022-10-15T03:09:50;7.40;;;3.90;;
55589;SDS011;41452;42.780;23.116;2022-10-15T03:12:15;9.85;;;3.53;;
55589;SDS011;41452;42.780;23.116;2022-10-15T03:14:41;7.72;;;4.03;;
55589;SDS011;41452;42.780;23.116;2022-10-15T03:17:06;9.48;;;4.00;;
55589;SDS011;41452;42.780;23.116;2022-10-15T03:19:31;9.10;;;3.38;;
55589;SDS011;41452;42.780;23.116;2022-10-15T03:21:57;6.50;;;3.55;;
55589;SDS011;41452;42.780;23.116;2022-10-15T03:24:22;7.28;;;3.83;;
55589;SDS011;41452;42.780;23.116;2022-10-15T03:26:48;7.10;;;3.97;;
55589;SDS011;41452;42.780;23.116;2022-10-15T03:29:13;7.10;;;3.60;;
55589;SDS011;41452;42.780;23.116;2022-10-15T03:31:38;8.77;;;3.53;;
55589;SDS011;41452;42.780;23.116;2022-10-15T03:34:04;6.78;;;3.75;;
55589;SDS011;41452;42.780;23.116;2022-10-15T03:36:29;9.10;;;3.83;;
55589;SDS011;41452;42.780;23.116;2022-10-15T03:38:54;5.80;;;3.35;;
55589;SDS011;41452;42.780;23.116;2022-10-15T03:41:20;8.40;;;3.60;;
55589;SDS011;41452;42.780;23.116;2022-10-15T03:43:45;5.30;;;3.05;;
55589;SDS011;41452;42.780;23.116;2022-10-15T03:46:11;5.18;;;3.60;;
55589;SDS011;41452;42.780;23.116;2022-10-15T03:48:36;7.82;;;3.92;;
55589;SDS011;41452;42.780;23.116;2022-10-15T03:51:05;8.18;;;3.65;;
55589;SDS011;41452;42.780;23.116;2022-10-15T03:53:30;6.07;;;3.58;;
55589;SDS011;41452;42.780;23.116;2022-10-15T03:56:01;5.93;;;4.00;;
55589;SDS011;41452;42.780;23.116;2022-10-15T03:58:27;6.25;;;3.80;;
55589;SDS011;41452;42.780;23.116;2022-10-15T04:00:52;7.65;;;3.40;;
55589;SDS011;41452;42.780;23.116;2022-10-15T04:03:18;6.85;;;4.05;;
55589;SDS011;41452;42.780;23.116;2022-10-15T04:05:48;8.77;;;4.43;;
55589;SDS011;41452;42.780;23.116;2022-10-15T04:08:15;9.23;;;4.22;;
55589;SDS011;41452;42.780;23.116;2022-10-15T04:10:40;9.15;;;4.22;;
55589;SDS011;41452;42.780;23.116;2022-10-15T04:13:05;8.88;;;3.65;;
55589;SDS011;41452;42.780;23.116;2022-10-15T04:15:31;7.15;;;4.00;;
55589;SDS011;41452;42.780;23.116;2022-10-15T04:17:56;11.20;;;3.95;;
55589;SDS011;41452;42.780;23.116;2022-10-15T04:20:22;11.32;;;3.70;;
55589;SDS011;41452;42.780;23.116;2022-10-15T04:22:47;5.97;;;3.70;;
55589;SDS011;41452;42.780;23.116;2022-10-15T04:25:13;9.55;;;4.10;;
55589;SDS011;41452;42.780;23.116;2022-10-15T04:27:38;7.15;;;3.75;;
55589;SDS011;41452;42.780;23.116;2022-10-15T04:30:04;7.05;;;3.92;;
55589;SDS011;41452;42.780;23.116;2022-10-15T04:32:30;6.63;;;4.00;;
55589;SDS011;41452;42.780;23.116;2022-10-15T04:34:55;7.10;;;3.97;;
55589;SDS011;41452;42.780;23.116;2022-10-15T04:37:20;6.45;;;3.90;;
55589;SDS011;41452;42.780;23.116;2022-10-15T04:39:46;7.07;;;3.85;;
55589;SDS011;41452;42.780;23.116;2022-10-15T04:42:11;7.53;;;3.95;;
55589;SDS011;41452;42.780;23.116;2022-10-15T04:44:36;7.53;;;3.55;;
55589;SDS011;41452;42.780;23.116;2022-10-15T04:47:02;7.32;;;4.00;;
55589;SDS011;41452;42.780;23.116;2022-10-15T04:49:27;6.18;;;3.85;;
55589;SDS011;41452;42.780;23.116;2022-10-15T04:51:53;6.25;;;3.72;;
55589;SDS011;41452;42.780;23.116;2022-10-15T04:54:18;6.13;;;3.78;;
55589;SDS011;41452;42.780;23.116;2022-10-15T04:56:44;7.25;;;3.65;;
55589;SDS011;41452;42.780;23.116;2022-10-15T04:59:09;6.53;;;3.97;;
55589;SDS011;41452;42.780;23.116;2022-10-15T05:01:34;7.47;;;3.90;;
55589;SDS011;41452;42.780;23.116;2022-10-15T05:04:00;12.35;;;4.78;;
55589;SDS011;41452;42.780;23.116;2022-10-15T05:06:25;6.95;;;4.57;;
55589;SDS011;41452;42.780;23.116;2022-10-15T05:08:51;11.73;;;4.30;;
55589;SDS011;41452;42.780;23.116;2022-10-15T05:11:24;10.52;;;4.55;;
55589;SDS011;41452;42.780;23.116;2022-10-15T05:13:51;14.05;;;4.80;;
55589;SDS011;41452;42.780;23.116;2022-10-15T05:16:20;15.93;;;5.50;;
55589;SDS011;41452;42.780;23.116;2022-10-15T05:18:47;11.55;;;5.30;;
55589;SDS011;41452;42.780;23.116;2022-10-15T05:21:14;11.38;;;4.30;;
55589;SDS011;41452;42.780;23.116;2022-10-15T05:23:41;9.10;;;5.00;;
55589;SDS011;41452;42.780;23.116;2022-10-15T05:26:09;7.32;;;4.28;;
55589;SDS011;41452;42.780;23.116;2022-10-15T05:28:37;8.40;;;4.13;;
55589;SDS011;41452;42.780;23.116;2022-10-15T05:31:07;7.82;;;4.32;;
55589;SDS011;41452;42.780;23.116;2022-10-15T05:33:37;9.07;;;4.63;;
55589;SDS011;41452;42.780;23.116;2022-10-15T05:38:34;9.45;;;4.43;;
55589;SDS011;41452;42.780;23.116;2022-10-15T05:40:59;9.73;;;5.22;;
55589;SDS011;41452;42.780;23.116;2022-10-15T05:43:24;12.18;;;4.68;;
55589;SDS011;41452;42.780;23.116;2022-10-15T05:45:52;7.65;;;4.82;;
55589;SDS011;41452;42.780;23.116;2022-10-15T05:48:18;7.65;;;4.05;;
55589;SDS011;41452;42.780;23.116;2022-10-15T05:50:44;8.07;;;4.15;;
55589;SDS011;41452;42.780;23.116;2022-10-15T05:53:09;9.20;;;5.57;;
55589;SDS011;41452;42.780;23.116;2022-10-15T05:55:34;10.25;;;6.10;;
55589;SDS011;41452;42.780;23.116;2022-10-15T05:58:00;11.20;;;5.97;;
55589;SDS011;41452;42.780;23.116;2022-10-15T06:00:27;11.48;;;5.78;;
55589;SDS011;41452;42.780;23.116;2022-10-15T06:02:53;9.73;;;5.55;;
55589;SDS011;41452;42.780;23.116;2022-10-15T06:05:18;12.32;;;5.53;;
55589;SDS011;41452;42.780;23.116;2022-10-15T06:07:43;9.52;;;5.43;;
55589;SDS011;41452;42.780;23.116;2022-10-15T06:10:09;11.05;;;5.72;;
55589;SDS011;41452;42.780;23.116;2022-10-15T06:12:34;12.48;;;5.70;;
55589;SDS011;41452;42.780;23.116;2022-10-15T06:15:00;9.07;;;5.28;;
55589;SDS011;41452;42.780;23.116;2022-10-15T06:17:25;11.43;;;5.40;;
55589;SDS011;41452;42.780;23.116;2022-10-15T06:19:51;11.18;;;5.03;;
55589;SDS011;41452;42.780;23.116;2022-10-15T06:22:16;7.93;;;4.85;;
55589;SDS011;41452;42.780;23.116;2022-10-15T06:24:41;13.73;;;5.07;;
55589;SDS011;41452;42.780;23.116;2022-10-15T06:27:07;7.07;;;4.20;;
55589;SDS011;41452;42.780;23.116;2022-10-15T06:29:34;7.07;;;4.32;;
55589;SDS011;41452;42.780;23.116;2022-10-15T06:31:59;10.52;;;4.10;;
55589;SDS011;41452;42.780;23.116;2022-10-15T06:34:25;7.40;;;4.13;;
55589;SDS011;41452;42.780;23.116;2022-10-15T06:36:51;8.00;;;3.78;;
55589;SDS011;41452;42.780;23.116;2022-10-15T06:39:16;7.57;;;4.40;;
55589;SDS011;41452;42.780;23.116;2022-10-15T06:41:42;8.18;;;4.30;;
55589;SDS011;41452;42.780;23.116;2022-10-15T06:44:07;7.80;;;3.63;;
55589;SDS011;41452;42.780;23.116;2022-10-15T06:46:32;6.75;;;3.88;;
55589;SDS011;41452;42.780;23.116;2022-10-15T06:48:58;7.50;;;3.50;;
55589;SDS011;41452;42.780;23.116;2022-10-15T06:51:25;7.40;;;3.88;;
55589;SDS011;41452;42.780;23.116;2022-10-15T06:53:50;8.35;;;3.28;;
55589;SDS011;41452;42.780;23.116;2022-10-15T06:56:16;6.13;;;2.90;;
55589;SDS011;41452;42.780;23.116;2022-10-15T06:58:41;6.93;;;2.90;;
55589;SDS011;41452;42.780;23.116;2022-10-15T07:01:09;7.38;;;3.00;;
55589;SDS011;41452;42.780;23.116;2022-10-15T07:03:35;7.50;;;3.22;;
55589;SDS011;41452;42.780;23.116;2022-10-15T07:06:03;7.28;;;3.25;;
55589;SDS011;41452;42.780;23.116;2022-10-15T07:08:30;7.25;;;3.45;;
55589;SDS011;41452;42.780;23.116;2022-10-15T07:10:55;6.65;;;3.17;;
55589;SDS011;41452;42.780;23.116;2022-10-15T07:13:21;9.00;;;3.03;;
55589;SDS011;41452;42.780;23.116;2022-10-15T07:15:46;6.97;;;3.75;;
55589;SDS011;41452;42.780;23.116;2022-10-15T07:18:13;7.32;;;3.88;;
55589;SDS011;41452;42.780;23.116;2022-10-15T07:20:39;6.90;;;3.60;;
55589;SDS011;41452;42.780;23.116;2022-10-15T07:23:04;8.07;;;3.13;;
55589;SDS011;41452;42.780;23.116;2022-10-15T07:25:30;10.20;;;3.17;;
55589;SDS011;41452;42.780;23.116;2022-10-15T07:27:56;9.40;;;3.40;;
55589;SDS011;41452;42.780;23.116;2022-10-15T07:30:22;8.43;;;3.38;;
55589;SDS011;41452;42.780;23.116;2022-10-15T07:32:51;5.72;;;3.20;;
55589;SDS011;41452;42.780;23.116;2022-10-15T07:35:16;6.78;;;3.80;;
55589;SDS011;41452;42.780;23.116;2022-10-15T07:37:42;7.28;;;3.28;;
55589;SDS011;41452;42.780;23.116;2022-10-15T07:40:07;8.68;;;4.72;;
55589;SDS011;41452;42.780;23.116;2022-10-15T07:42:33;6.65;;;3.53;;
55589;SDS011;41452;42.780;23.116;2022-10-15T07:44:58;8.43;;;3.83;;
55589;SDS011;41452;42.780;23.116;2022-10-15T07:47:24;6.70;;;3.55;;
55589;SDS011;41452;42.780;23.116;2022-10-15T07:49:49;7.95;;;3.70;;
55589;SDS011;41452;42.780;23.116;2022-10-15T07:52:15;9.32;;;3.53;;
55589;SDS011;41452;42.780;23.116;2022-10-15T07:54:40;7.13;;;3.53;;
55589;SDS011;41452;42.780;23.116;2022-10-15T07:57:05;7.53;;;3.50;;
55589;SDS011;41452;42.780;23.116;2022-10-15T07:59:31;7.90;;;3.97;;
55589;SDS011;41452;42.780;23.116;2022-10-15T08:01:57;6.75;;;3.38;;
55589;SDS011;41452;42.780;23.116;2022-10-15T08:04:22;10.35;;;4.00;;
55589;SDS011;41452;42.780;23.116;2022-10-15T08:06:47;8.15;;;3.60;;
55589;SDS011;41452;42.780;23.116;2022-10-15T08:09:13;5.97;;;3.55;;
55589;SDS011;41452;42.780;23.116;2022-10-15T08:11:39;9.18;;;3.28;;
55589;SDS011;41452;42.780;23.116;2022-10-15T08:14:04;8.05;;;4.10;;
55589;SDS011;41452;42.780;23.116;2022-10-15T08:16:29;5.90;;;3.08;;
55589;SDS011;41452;42.780;23.116;2022-10-15T08:18:56;4.53;;;2.78;;
55589;SDS011;41452;42.780;23.116;2022-10-15T08:21:23;5.47;;;3.17;;
55589;SDS011;41452;42.780;23.116;2022-10-15T08:23:48;4.43;;;2.72;;
55589;SDS011;41452;42.780;23.116;2022-10-15T08:26:13;7.57;;;3.15;;
55589;SDS011;41452;42.780;23.116;2022-10-15T08:28:39;4.97;;;3.20;;
55589;SDS011;41452;42.780;23.116;2022-10-15T08:31:04;4.95;;;2.88;;
55589;SDS011;41452;42.780;23.116;2022-10-15T08:33:30;7.18;;;3.40;;
55589;SDS011;41452;42.780;23.116;2022-10-15T08:35:56;8.02;;;3.20;;
55589;SDS011;41452;42.780;23.116;2022-10-15T08:38:21;6.78;;;3.30;;
55589;SDS011;41452;42.780;23.116;2022-10-15T08:40:50;6.60;;;3.20;;
55589;SDS011;41452;42.780;23.116;2022-10-15T08:43:24;7.65;;;3.00;;
55589;SDS011;41452;42.780;23.116;2022-10-15T08:45:53;5.68;;;2.80;;
55589;SDS011;41452;42.780;23.116;2022-10-15T08:48:31;8.23;;;3.53;;
55589;SDS011;41452;42.780;23.116;2022-10-15T08:51:09;5.05;;;2.90;;
55589;SDS011;41452;42.780;23.116;2022-10-15T08:53:38;6.43;;;3.08;;
55589;SDS011;41452;42.780;23.116;2022-10-15T09:02:12;6.03;;;2.47;;
55589;SDS011;41452;42.780;23.116;2022-10-15T09:04:41;6.03;;;3.17;;
55589;SDS011;41452;42.780;23.116;2022-10-15T09:15:11;4.30;;;2.67;;
55589;SDS011;41452;42.780;23.116;2022-10-15T09:17:40;5.68;;;2.72;;
55589;SDS011;41452;42.780;23.116;2022-10-15T09:20:12;6.80;;;2.85;;
55589;SDS011;41452;42.780;23.116;2022-10-15T09:22:41;8.32;;;2.42;;
55589;SDS011;41452;42.780;23.116;2022-10-15T09:25:13;4.05;;;2.42;;
55589;SDS011;41452;42.780;23.116;2022-10-15T09:27:40;8.03;;;2.37;;
55589;SDS011;41452;42.780;23.116;2022-10-15T09:35:12;5.45;;;2.90;;
55589;SDS011;41452;42.780;23.116;2022-10-15T09:37:54;7.18;;;3.10;;
55589;SDS011;41452;42.780;23.116;2022-10-15T09:40:51;4.97;;;2.90;;
55589;SDS011;41452;42.780;23.116;2022-10-15T09:43:35;7.25;;;3.30;;
55589;SDS011;41452;42.780;23.116;2022-10-15T09:46:05;6.20;;;3.55;;
55589;SDS011;41452;42.780;23.116;2022-10-15T09:48:31;5.10;;;2.63;;
55589;SDS011;41452;42.780;23.116;2022-10-15T09:51:34;12.57;;;2.97;;
55589;SDS011;41452;42.780;23.116;2022-10-15T09:56:47;5.90;;;2.83;;
55589;SDS011;41452;42.780;23.116;2022-10-15T09:59:16;5.55;;;2.90;;
55589;SDS011;41452;42.780;23.116;2022-10-15T10:04:30;8.23;;;2.88;;
55589;SDS011;41452;42.780;23.116;2022-10-15T10:07:03;4.60;;;2.40;;
55589;SDS011;41452;42.780;23.116;2022-10-15T10:09:47;3.70;;;2.03;;
55589;SDS011;41452;42.780;23.116;2022-10-15T10:12:17;5.47;;;2.28;;
55589;SDS011;41452;42.780;23.116;2022-10-15T10:17:27;5.57;;;2.53;;
55589;SDS011;41452;42.780;23.116;2022-10-15T10:22:47;5.10;;;2.63;;
55589;SDS011;41452;42.780;23.116;2022-10-15T10:31:25;6.90;;;2.08;;
55589;SDS011;41452;42.780;23.116;2022-10-15T10:36:02;7.38;;;1.90;;
55589;SDS011;41452;42.780;23.116;2022-10-15T10:38:33;8.00;;;2.17;;
55589;SDS011;41452;42.780;23.116;2022-10-15T10:41:04;4.05;;;2.28;;
55589;SDS011;41452;42.780;23.116;2022-10-15T10:43:37;9.80;;;1.92;;
55589;SDS011;41452;42.780;23.116;2022-10-15T10:46:05;8.15;;;2.17;;
55589;SDS011;41452;42.780;23.116;2022-10-15T10:48:43;3.70;;;1.88;;
55589;SDS011;41452;42.780;23.116;2022-10-15T10:54:02;4.50;;;1.88;;
55589;SDS011;41452;42.780;23.116;2022-10-15T10:56:39;4.15;;;1.80;;
55589;SDS011;41452;42.780;23.116;2022-10-15T10:59:14;9.18;;;2.47;;
55589;SDS011;41452;42.780;23.116;2022-10-15T11:01:44;4.07;;;2.00;;
55589;SDS011;41452;42.780;23.116;2022-10-15T11:04:17;3.08;;;1.85;;
55589;SDS011;41452;42.780;23.116;2022-10-15T11:24:04;4.72;;;2.00;;
55589;SDS011;41452;42.780;23.116;2022-10-15T11:29:47;7.82;;;1.80;;
55589;SDS011;41452;42.780;23.116;2022-10-15T11:47:20;8.95;;;1.58;;
55589;SDS011;41452;42.780;23.116;2022-10-15T11:50:00;5.07;;;2.85;;
55589;SDS011;41452;42.780;23.116;2022-10-15T11:55:10;5.05;;;2.20;;
55589;SDS011;41452;42.780;23.116;2022-10-15T11:57:41;3.58;;;1.95;;
55589;SDS011;41452;42.780;23.116;2022-10-15T12:03:14;2.53;;;1.42;;
55589;SDS011;41452;42.780;23.116;2022-10-15T12:05:46;3.65;;;1.58;;
55589;SDS011;41452;42.780;23.116;2022-10-15T12:08:16;3.30;;;1.25;;
55589;SDS011;41452;42.780;23.116;2022-10-15T12:18:50;3.50;;;1.63;;
55589;SDS011;41452;42.780;23.116;2022-10-15T12:21:39;2.10;;;1.38;;
55589;SDS011;41452;42.780;23.116;2022-10-15T12:24:48;2.55;;;1.20;;
55589;SDS011;41452;42.780;23.116;2022-10-15T12:29:45;3.53;;;1.50;;
55589;SDS011;41452;42.780;23.116;2022-10-15T12:35:16;5.20;;;2.20;;
55589;SDS011;41452;42.780;23.116;2022-10-15T12:37:45;4.05;;;2.10;;
55589;SDS011;41452;42.780;23.116;2022-10-15T12:42:45;3.97;;;1.85;;
55589;SDS011;41452;42.780;23.116;2022-10-15T12:45:22;14.00;;;2.35;;
55589;SDS011;41452;42.780;23.116;2022-10-15T12:47:53;3.80;;;1.88;;
55589;SDS011;41452;42.780;23.116;2022-10-15T12:50:36;3.30;;;1.48;;
55589;SDS011;41452;42.780;23.116;2022-10-15T12:58:37;3.22;;;1.73;;
55589;SDS011;41452;42.780;23.116;2022-10-15T13:03:51;3.42;;;1.95;;
55589;SDS011;41452;42.780;23.116;2022-10-15T13:06:30;5.63;;;2.05;;
55589;SDS011;41452;42.780;23.116;2022-10-15T13:11:46;3.83;;;1.83;;
55589;SDS011;41452;42.780;23.116;2022-10-15T13:17:13;3.20;;;1.60;;
55589;SDS011;41452;42.780;23.116;2022-10-15T13:20:03;4.95;;;1.65;;
55589;SDS011;41452;42.780;23.116;2022-10-15T13:22:32;5.45;;;2.53;;
55589;SDS011;41452;42.780;23.116;2022-10-15T13:24:59;4.32;;;1.90;;
55589;SDS011;41452;42.780;23.116;2022-10-15T13:27:29;4.15;;;2.28;;
55589;SDS011;41452;42.780;23.116;2022-10-15T13:32:22;3.95;;;2.00;;
55589;SDS011;41452;42.780;23.116;2022-10-15T13:34:49;5.47;;;2.45;;
55589;SDS011;41452;42.780;23.116;2022-10-15T13:37:16;8.38;;;2.20;;
55589;SDS011;41452;42.780;23.116;2022-10-15T13:39:44;5.10;;;2.17;;
55589;SDS011;41452;42.780;23.116;2022-10-15T13:44:54;6.25;;;2.63;;
55589;SDS011;41452;42.780;23.116;2022-10-15T13:47:32;3.80;;;1.60;;
55589;SDS011;41452;42.780;23.116;2022-10-15T13:55:23;7.38;;;1.95;;
55589;SDS011;41452;42.780;23.116;2022-10-15T13:57:57;5.22;;;1.98;;
55589;SDS011;41452;42.780;23.116;2022-10-15T14:00:26;5.35;;;2.20;;
55589;SDS011;41452;42.780;23.116;2022-10-15T14:05:44;2.72;;;1.70;;
55589;SDS011;41452;42.780;23.116;2022-10-15T14:08:20;6.53;;;2.42;;
55589;SDS011;41452;42.780;23.116;2022-10-15T14:10:48;4.15;;;1.92;;
55589;SDS011;41452;42.780;23.116;2022-10-15T14:13:15;4.10;;;1.98;;
55589;SDS011;41452;42.780;23.116;2022-10-15T14:15:42;4.30;;;1.70;;
55589;SDS011;41452;42.780;23.116;2022-10-15T14:18:11;3.30;;;1.85;;
55589;SDS011;41452;42.780;23.116;2022-10-15T14:20:45;7.82;;;2.00;;
55589;SDS011;41452;42.780;23.116;2022-10-15T14:23:22;4.10;;;1.90;;
55589;SDS011;41452;42.780;23.116;2022-10-15T14:25:53;5.90;;;2.20;;
55589;SDS011;41452;42.780;23.116;2022-10-15T14:28:23;4.07;;;1.98;;
55589;SDS011;41452;42.780;23.116;2022-10-15T14:30:51;3.78;;;1.70;;
55589;SDS011;41452;42.780;23.116;2022-10-15T14:36:08;2.83;;;1.70;;
55589;SDS011;41452;42.780;23.116;2022-10-15T14:38:37;4.03;;;2.10;;
55589;SDS011;41452;42.780;23.116;2022-10-15T14:41:04;6.20;;;2.03;;
55589;SDS011;41452;42.780;23.116;2022-10-15T14:43:44;3.17;;;1.75;;
55589;SDS011;41452;42.780;23.116;2022-10-15T14:46:14;5.45;;;1.60;;
55589;SDS011;41452;42.780;23.116;2022-10-15T14:48:43;3.08;;;1.33;;
55589;SDS011;41452;42.780;23.116;2022-10-15T14:51:16;4.15;;;1.95;;
55589;SDS011;41452;42.780;23.116;2022-10-15T14:53:48;4.35;;;1.90;;
55589;SDS011;41452;42.780;23.116;2022-10-15T14:56:18;4.40;;;1.80;;
55589;SDS011;41452;42.780;23.116;2022-10-15T14:58:47;5.28;;;2.10;;
55589;SDS011;41452;42.780;23.116;2022-10-15T15:01:16;3.15;;;1.60;;
55589;SDS011;41452;42.780;23.116;2022-10-15T15:03:48;3.13;;;1.63;;
55589;SDS011;41452;42.780;23.116;2022-10-15T15:06:15;4.03;;;1.77;;
55589;SDS011;41452;42.780;23.116;2022-10-15T15:08:40;2.78;;;1.90;;
55589;SDS011;41452;42.780;23.116;2022-10-15T15:11:08;3.50;;;1.85;;
55589;SDS011;41452;42.780;23.116;2022-10-15T15:13:37;16.50;;;1.90;;
55589;SDS011;41452;42.780;23.116;2022-10-15T15:16:05;4.40;;;1.85;;
55589;SDS011;41452;42.780;23.116;2022-10-15T15:18:31;2.97;;;1.85;;
55589;SDS011;41452;42.780;23.116;2022-10-15T15:20:58;5.90;;;1.73;;
55589;SDS011;41452;42.780;23.116;2022-10-15T15:23:27;5.03;;;1.70;;
55589;SDS011;41452;42.780;23.116;2022-10-15T15:25:53;5.10;;;1.98;;
55589;SDS011;41452;42.780;23.116;2022-10-15T15:28:21;3.05;;;1.80;;
55589;SDS011;41452;42.780;23.116;2022-10-15T15:30:55;6.10;;;3.08;;
55589;SDS011;41452;42.780;23.116;2022-10-15T15:33:22;4.00;;;1.80;;
55589;SDS011;41452;42.780;23.116;2022-10-15T15:35:49;5.30;;;1.67;;
55589;SDS011;41452;42.780;23.116;2022-10-15T15:38:26;3.97;;;1.63;;
55589;SDS011;41452;42.780;23.116;2022-10-15T15:40:58;11.38;;;2.10;;
55589;SDS011;41452;42.780;23.116;2022-10-15T15:43:33;5.13;;;2.10;;
55589;SDS011;41452;42.780;23.116;2022-10-15T15:45:58;3.38;;;1.70;;
55589;SDS011;41452;42.780;23.116;2022-10-15T15:48:24;4.72;;;2.08;;
55589;SDS011;41452;42.780;23.116;2022-10-15T15:50:49;7.18;;;2.58;;
55589;SDS011;41452;42.780;23.116;2022-10-15T15:53:19;4.35;;;2.00;;
55589;SDS011;41452;42.780;23.116;2022-10-15T15:55:44;10.43;;;3.55;;
55589;SDS011;41452;42.780;23.116;2022-10-15T15:58:09;28.38;;;8.85;;
55589;SDS011;41452;42.780;23.116;2022-10-15T16:00:35;28.38;;;9.40;;
55589;SDS011;41452;42.780;23.116;2022-10-15T16:03:00;38.63;;;12.45;;
55589;SDS011;41452;42.780;23.116;2022-10-15T16:05:32;35.20;;;11.15;;
55589;SDS011;41452;42.780;23.116;2022-10-15T16:08:08;76.70;;;25.40;;
55589;SDS011;41452;42.780;23.116;2022-10-15T16:10:35;97.53;;;28.77;;
55589;SDS011;41452;42.780;23.116;2022-10-15T16:13:01;79.63;;;22.10;;
55589;SDS011;41452;42.780;23.116;2022-10-15T16:15:26;51.42;;;15.07;;
55589;SDS011;41452;42.780;23.116;2022-10-15T16:17:52;45.92;;;13.55;;
55589;SDS011;41452;42.780;23.116;2022-10-15T16:20:18;21.75;;;7.72;;
55589;SDS011;41452;42.780;23.116;2022-10-15T16:22:43;13.90;;;5.82;;
55589;SDS011;41452;42.780;23.116;2022-10-15T16:25:09;30.73;;;9.10;;
55589;SDS011;41452;42.780;23.116;2022-10-15T16:27:34;25.83;;;7.65;;
55589;SDS011;41452;42.780;23.116;2022-10-15T16:30:13;38.35;;;10.25;;
55589;SDS011;41452;42.780;23.116;2022-10-15T16:32:40;45.38;;;9.93;;
55589;SDS011;41452;42.780;23.116;2022-10-15T16:35:05;66.90;;;15.15;;
55589;SDS011;41452;42.780;23.116;2022-10-15T16:37:31;49.55;;;11.85;;
55589;SDS011;41452;42.780;23.116;2022-10-15T16:39:56;58.50;;;17.15;;
55589;SDS011;41452;42.780;23.116;2022-10-15T16:42:22;56.38;;;16.67;;
55589;SDS011;41452;42.780;23.116;2022-10-15T16:44:48;26.55;;;9.10;;
55589;SDS011;41452;42.780;23.116;2022-10-15T16:47:14;25.02;;;8.93;;
55589;SDS011;41452;42.780;23.116;2022-10-15T16:49:39;27.25;;;9.43;;
55589;SDS011;41452;42.780;23.116;2022-10-15T16:52:06;19.20;;;8.15;;
55589;SDS011;41452;42.780;23.116;2022-10-15T16:54:31;15.85;;;6.65;;
55589;SDS011;41452;42.780;23.116;2022-10-15T16:56:57;12.38;;;5.13;;
55589;SDS011;41452;42.780;23.116;2022-10-15T16:59:22;13.75;;;5.60;;
55589;SDS011;41452;42.780;23.116;2022-10-15T17:01:48;9.88;;;5.18;;
55589;SDS011;41452;42.780;23.116;2022-10-15T17:04:13;18.83;;;6.57;;
55589;SDS011;41452;42.780;23.116;2022-10-15T17:06:39;16.23;;;7.50;;
55589;SDS011;41452;42.780;23.116;2022-10-15T17:09:04;17.10;;;7.80;;